createdAt,value
2023-03-11T00:00:31.793Z,2.50
2023-03-11T00:05:38.858Z,2.40
2023-03-11T00:10:43.806Z,2.30
2023-03-11T00:15:48.802Z,2.30
2023-03-11T00:20:50.643Z,2.30
2023-03-11T00:25:53.217Z,2.30
2023-03-11T00:30:55.288Z,2.20
2023-03-11T00:35:57.200Z,2.10
2023-03-11T00:41:01.630Z,2.00
2023-03-11T00:46:04.880Z,1.90
2023-03-11T00:51:14.876Z,1.90
2023-03-11T00:56:16.689Z,1.70
2023-03-11T01:01:20.049Z,1.90
2023-03-11T01:06:22.515Z,1.80
2023-03-11T01:11:24.285Z,1.80
2023-03-11T01:16:26.083Z,1.80
2023-03-11T01:21:27.992Z,1.50
2023-03-11T01:26:29.712Z,1.60
2023-03-11T01:31:31.551Z,1.70
2023-03-11T01:36:33.522Z,1.40
2023-03-11T01:41:35.284Z,1.60
2023-03-11T01:46:59.712Z,1.60
2023-03-11T01:52:04.262Z,1.50
2023-03-11T01:57:09.499Z,1.40
2023-03-11T02:02:41.988Z,1.50
2023-03-11T02:07:43.917Z,1.20
2023-03-11T02:12:46.739Z,1.20
2023-03-11T02:17:48.581Z,1.30
2023-03-11T02:22:50.740Z,1.30
2023-03-11T02:27:54.305Z,1.20
2023-03-11T02:32:56.715Z,1.20
2023-03-11T02:37:58.600Z,1.20
2023-03-11T02:43:05.748Z,1.20
2023-03-11T02:48:10.160Z,1.20
2023-03-11T02:53:11.996Z,1.30
2023-03-11T02:58:14.038Z,1.40
2023-03-11T03:03:15.956Z,1.30
2023-03-11T03:08:17.744Z,1.20
2023-03-11T03:13:19.579Z,1.20
2023-03-11T03:18:21.750Z,1.20
2023-03-11T03:23:23.793Z,1.20
2023-03-11T03:28:25.694Z,1.40
2023-03-11T03:33:27.418Z,1.30
2023-03-11T03:38:29.247Z,1.30
2023-03-11T03:43:31.030Z,1.30
2023-03-11T03:48:32.993Z,1.40
2023-03-11T03:53:35.933Z,1.30
2023-03-11T03:58:38.043Z,1.40
2023-03-11T04:03:40.009Z,1.40
2023-03-11T04:08:41.828Z,1.40
2023-03-11T04:13:44.744Z,1.30
2023-03-11T04:18:47.325Z,1.40
2023-03-11T04:23:49.193Z,1.20
2023-03-11T04:28:51.039Z,1.40
2023-03-11T04:33:53.130Z,1.40
2023-03-11T04:38:56.970Z,1.40
2023-03-11T04:43:59.459Z,1.40
2023-03-11T04:49:01.233Z,1.40
2023-03-11T04:54:03.091Z,1.50
2023-03-11T04:59:04.850Z,1.50
2023-03-11T05:04:06.576Z,1.40
2023-03-11T05:09:08.370Z,1.30
2023-03-11T05:14:10.055Z,1.50
2023-03-11T05:19:30.331Z,1.50
2023-03-11T05:24:32.469Z,1.40
2023-03-11T05:29:34.289Z,1.50
2023-03-11T05:34:35.950Z,1.50
2023-03-11T05:39:37.841Z,1.50
2023-03-11T05:44:39.662Z,1.60
2023-03-11T05:49:41.430Z,1.60
2023-03-11T05:54:43.325Z,1.50
2023-03-11T05:59:45.515Z,1.50
2023-03-11T06:04:48.253Z,1.50
2023-03-11T06:09:50.782Z,1.50
2023-03-11T06:14:54.250Z,1.60
2023-03-11T06:19:55.995Z,1.50
2023-03-11T06:24:57.744Z,1.50
2023-03-11T06:29:59.513Z,1.60
2023-03-11T06:35:01.226Z,1.60
2023-03-11T06:40:05.199Z,1.60
2023-03-11T06:45:07.534Z,1.70
2023-03-11T06:50:09.697Z,1.60
2023-03-11T06:55:11.676Z,1.70
2023-03-11T07:00:14.250Z,1.60
2023-03-11T07:05:16.044Z,1.70
2023-03-11T07:10:17.795Z,1.80
2023-03-11T07:15:19.515Z,1.90
2023-03-11T07:20:21.270Z,1.80
2023-03-11T07:25:22.944Z,2.00
2023-03-11T07:30:24.692Z,1.90
2023-03-11T07:35:26.379Z,1.70
2023-03-11T07:40:28.057Z,1.90
2023-03-11T07:45:29.748Z,2.00
2023-03-11T07:50:31.582Z,1.90
2023-03-11T07:55:33.718Z,2.00
2023-03-11T08:00:35.446Z,2.00
2023-03-11T08:05:37.123Z,2.10
2023-03-11T08:10:39.627Z,2.20
2023-03-11T08:15:41.448Z,2.30
2023-03-11T08:20:45.120Z,2.60
2023-03-11T08:25:47.123Z,2.50
2023-03-11T08:30:48.900Z,2.40
2023-03-11T08:35:50.664Z,2.30
2023-03-11T08:40:52.469Z,2.40
2023-03-11T08:45:54.140Z,2.40
2023-03-11T08:50:56.414Z,2.30
2023-03-11T08:55:58.180Z,2.30
2023-03-11T09:01:00.459Z,2.50
2023-03-11T09:06:05.068Z,2.30
2023-03-11T09:11:07.119Z,2.40
2023-03-11T09:16:18.324Z,2.20
2023-03-11T09:21:20.499Z,2.30
2023-03-11T09:26:22.204Z,2.40
2023-03-11T09:31:24.294Z,2.80
2023-03-11T09:36:26.080Z,3.00
2023-03-11T09:41:32.246Z,3.20
2023-03-11T09:46:58.707Z,3.10
2023-03-11T09:52:12.710Z,2.80
2023-03-11T09:57:22.738Z,3.30
2023-03-11T10:02:26.807Z,3.30
2023-03-11T10:07:41.418Z,3.50
2023-03-11T10:13:10.478Z,3.80
2023-03-11T10:18:15.308Z,3.70
2023-03-11T10:23:25.342Z,3.90
2023-03-11T10:28:40.093Z,4.10
2023-03-11T10:33:48.035Z,3.90
2023-03-11T10:38:51.902Z,3.90
2023-03-11T10:44:11.430Z,3.20
2023-03-11T10:49:18.312Z,3.20
2023-03-11T10:54:39.696Z,3.30
2023-03-11T10:59:53.267Z,3.90
2023-03-11T11:05:23.154Z,3.60
2023-03-11T11:10:27.255Z,3.90
2023-03-11T11:15:40.177Z,4.20
2023-03-11T11:21:13.515Z,4.20
2023-03-11T11:26:24.759Z,4.40
2023-03-11T11:31:26.771Z,4.60
2023-03-11T11:36:36.046Z,3.90
2023-03-11T11:41:38.034Z,3.70
2023-03-11T11:47:06.283Z,3.90
2023-03-11T11:52:18.310Z,4.00
2023-03-11T11:57:22.533Z,3.80
2023-03-11T12:02:52.240Z,3.80
2023-03-11T12:08:17.365Z,4.00
2023-03-11T12:13:50.576Z,4.00
2023-03-11T12:19:14.610Z,4.20
2023-03-11T12:24:19.158Z,4.60
2023-03-11T12:29:43.387Z,4.30
2023-03-11T12:34:46.234Z,4.60
2023-03-11T12:39:49.058Z,4.60
2023-03-11T12:44:51.794Z,4.80
2023-03-11T12:50:35.358Z,4.60
2023-03-11T12:55:38.952Z,4.80
2023-03-11T13:00:53.250Z,4.40
2023-03-11T13:06:11.953Z,4.00
2023-03-11T13:11:41.579Z,4.40
2023-03-11T13:16:44.510Z,4.00
2023-03-11T13:21:46.234Z,4.10
2023-03-11T13:27:00.263Z,4.40
2023-03-11T13:32:39.987Z,4.90
2023-03-11T13:38:11.462Z,4.30
2023-03-11T13:43:22.037Z,4.50
2023-03-11T13:48:37.665Z,4.90
2023-03-11T13:53:46.083Z,5.00
2023-03-11T13:58:47.761Z,5.20
2023-03-11T14:03:49.543Z,5.60
2023-03-11T14:08:56.319Z,5.70
2023-03-11T14:13:58.240Z,4.50
2023-03-11T14:19:19.818Z,4.80
2023-03-11T14:24:29.107Z,4.40
2023-03-11T14:29:35.472Z,4.60
2023-03-11T14:34:41.013Z,4.80
2023-03-11T14:39:46.282Z,5.20
2023-03-11T14:45:12.164Z,4.90
2023-03-11T14:50:25.696Z,5.20
2023-03-11T14:55:30.945Z,4.90
2023-03-11T15:00:39.819Z,5.40
2023-03-11T15:05:55.011Z,6.00
2023-03-11T15:11:07.228Z,6.90
2023-03-11T15:16:30.180Z,7.00
2023-03-11T15:21:31.984Z,6.10
2023-03-11T15:26:35.858Z,6.40
2023-03-11T15:31:39.514Z,6.70
2023-03-11T15:36:47.948Z,6.40
2023-03-11T15:42:07.904Z,6.00
2023-03-11T15:47:21.665Z,5.50
2023-03-11T15:52:23.547Z,5.30
2023-03-11T15:57:28.096Z,5.30
2023-03-11T16:02:32.267Z,5.40
2023-03-11T16:07:39.883Z,5.40
2023-03-11T16:12:45.444Z,5.40
2023-03-11T16:17:50.070Z,5.00
2023-03-11T16:22:58.609Z,4.90
2023-03-11T16:28:00.999Z,4.40
2023-03-11T16:33:04.751Z,4.40
2023-03-11T16:38:08.105Z,4.30
2023-03-11T16:43:12.632Z,4.20
2023-03-11T16:48:14.431Z,4.00
2023-03-11T16:53:17.612Z,3.90
2023-03-11T16:58:19.848Z,3.80
2023-03-11T17:03:22.103Z,3.60
2023-03-11T17:08:25.134Z,3.50
2023-03-11T17:13:27.260Z,3.50
2023-03-11T17:18:29.240Z,3.40
2023-03-11T17:23:30.941Z,3.30
2023-03-11T17:28:35.022Z,3.20
2023-03-11T17:33:36.817Z,3.20
2023-03-11T17:38:38.620Z,3.00
2023-03-11T17:43:40.870Z,3.00
2023-03-11T17:48:47.276Z,2.90
2023-03-11T17:53:49.714Z,2.90
2023-03-11T17:58:51.876Z,2.80
2023-03-11T18:03:54.084Z,2.70
2023-03-11T18:08:55.958Z,2.70
2023-03-11T18:13:58.526Z,2.60
2023-03-11T18:19:00.384Z,2.60
2023-03-11T18:24:02.172Z,2.60
2023-03-11T18:29:04.049Z,2.50
2023-03-11T18:34:12.285Z,2.50
2023-03-11T18:39:14.175Z,2.50
2023-03-11T18:44:16.211Z,2.40
2023-03-11T18:49:17.971Z,2.30
2023-03-11T18:54:19.748Z,2.20
2023-03-11T18:59:21.451Z,2.20
2023-03-11T19:04:23.443Z,2.20
2023-03-11T19:09:25.204Z,2.10
2023-03-11T19:14:27.153Z,2.10
2023-03-11T19:19:28.949Z,2.10
2023-03-11T19:24:30.741Z,1.90
2023-03-11T19:29:32.526Z,1.90
2023-03-11T19:34:34.544Z,2.00
2023-03-11T19:39:36.367Z,1.80
2023-03-11T19:44:38.223Z,1.80
2023-03-11T19:49:39.920Z,1.70
2023-03-11T19:54:41.895Z,1.70
2023-03-11T19:59:43.784Z,1.60
2023-03-11T20:04:45.592Z,1.50
2023-03-11T20:09:47.386Z,1.50
2023-03-11T20:14:49.078Z,1.40
2023-03-11T20:19:50.897Z,1.50
2023-03-11T20:24:52.745Z,1.40
2023-03-11T20:29:54.603Z,1.40
2023-03-11T20:34:57.162Z,1.40
2023-03-11T20:39:58.983Z,1.30
2023-03-11T20:45:00.775Z,1.40
2023-03-11T20:50:02.974Z,1.40
2023-03-11T20:55:07.535Z,1.30
2023-03-11T21:00:13.288Z,1.20
2023-03-11T21:05:15.296Z,1.20
2023-03-11T21:10:18.043Z,1.10
2023-03-11T21:15:20.632Z,1.10
2023-03-11T21:20:22.612Z,1.10
2023-03-11T21:25:24.436Z,1.00
2023-03-11T21:30:27.493Z,1.00
2023-03-11T21:35:29.845Z,1.00
2023-03-11T21:40:32.006Z,1.00
2023-03-11T21:45:33.988Z,1.10
2023-03-11T21:50:38.055Z,1.10
2023-03-11T21:55:42.149Z,1.00
2023-03-11T22:00:44.635Z,0.90
2023-03-11T22:05:46.704Z,0.80
2023-03-11T22:10:48.779Z,0.80
2023-03-11T22:15:51.168Z,0.80
2023-03-11T22:20:53.075Z,0.80
2023-03-11T22:25:55.029Z,0.80
2023-03-11T22:30:57.005Z,0.80
2023-03-11T22:36:02.672Z,0.80
2023-03-11T22:41:07.473Z,0.70
2023-03-11T22:46:09.378Z,0.70
2023-03-11T22:51:11.327Z,0.60
2023-03-11T22:56:18.614Z,0.60
2023-03-11T23:01:20.351Z,0.60
2023-03-11T23:06:22.595Z,0.50
2023-03-11T23:11:24.435Z,0.50
2023-03-11T23:16:26.379Z,0.50
2023-03-11T23:21:31.467Z,0.50
2023-03-11T23:26:34.761Z,0.40
2023-03-11T23:31:36.499Z,0.40
2023-03-11T23:36:38.193Z,0.40
2023-03-11T23:41:39.920Z,0.30
2023-03-11T23:46:41.608Z,0.30
2023-03-11T23:51:43.306Z,0.20
2023-03-11T23:56:45.474Z,0.20
